sensor_id;sensor_type;location;lat;lon;timestamp;temperature;humidity
17968;DHT22;9109;48.050;11.696;2023-08-20T04:05:23;21.50;95.50
17968;DHT22;9109;48.050;11.696;2023-08-20T04:08:25;21.60;95.70
17968;DHT22;9109;48.050;11.696;2023-08-20T04:11:27;21.60;95.50
17968;DHT22;9109;48.050;11.696;2023-08-20T04:14:29;21.60;95.40
17968;DHT22;9109;48.050;11.696;2023-08-20T04:17:31;21.60;95.40
17968;DHT22;9109;48.050;11.696;2023-08-20T04:20:36;21.60;95.70
17968;DHT22;9109;48.050;11.696;2023-08-20T04:23:39;21.60;95.80
17968;DHT22;9109;48.050;11.696;2023-08-20T04:26:41;21.60;95.80
17968;DHT22;9109;48.050;11.696;2023-08-20T04:29:44;21.60;95.80
17968;DHT22;9109;48.050;11.696;2023-08-20T04:32:46;21.60;95.90
17968;DHT22;9109;48.050;11.696;2023-08-20T04:35:50;21.60;95.80
17968;DHT22;9109;48.050;11.696;2023-08-20T04:38:52;21.50;95.80
17968;DHT22;9109;48.050;11.696;2023-08-20T04:41:54;21.50;96.10
17968;DHT22;9109;48.050;11.696;2023-08-20T04:44:57;21.40;96.10
17968;DHT22;9109;48.050;11.696;2023-08-20T04:47:59;21.20;96.40
17968;DHT22;9109;48.050;11.696;2023-08-20T04:51:03;21.30;96.90
17968;DHT22;9109;48.050;11.696;2023-08-20T04:54:05;21.30;96.80
17968;DHT22;9109;48.050;11.696;2023-08-20T04:57:07;21.40;96.50
17968;DHT22;9109;48.050;11.696;2023-08-20T05:00:10;21.40;96.30
17968;DHT22;9109;48.050;11.696;2023-08-20T05:03:12;21.30;96.00
17968;DHT22;9109;48.050;11.696;2023-08-20T05:06:15;21.30;96.50
17968;DHT22;9109;48.050;11.696;2023-08-20T05:09:17;21.30;96.70
17968;DHT22;9109;48.050;11.696;2023-08-20T05:12:19;21.30;96.70
17968;DHT22;9109;48.050;11.696;2023-08-20T05:15:21;21.30;96.60
17968;DHT22;9109;48.050;11.696;2023-08-20T05:18:23;21.40;96.70
17968;DHT22;9109;48.050;11.696;2023-08-20T05:21:26;21.30;96.90
17968;DHT22;9109;48.050;11.696;2023-08-20T05:24:28;21.30;97.40
17968;DHT22;9109;48.050;11.696;2023-08-20T05:27:30;21.30;97.30
17968;DHT22;9109;48.050;11.696;2023-08-20T05:30:34;21.30;97.40
17968;DHT22;9109;48.050;11.696;2023-08-20T05:33:36;21.30;97.20
17968;DHT22;9109;48.050;11.696;2023-08-20T05:36:39;21.40;97.20
17968;DHT22;9109;48.050;11.696;2023-08-20T05:39:43;21.40;97.30
17968;DHT22;9109;48.050;11.696;2023-08-20T05:42:45;21.30;97.70
17968;DHT22;9109;48.050;11.696;2023-08-20T05:45:47;21.40;97.50
17968;DHT22;9109;48.050;11.696;2023-08-20T05:48:49;21.50;97.20
17968;DHT22;9109;48.050;11.696;2023-08-20T05:51:52;21.50;97.10
17968;DHT22;9109;48.050;11.696;2023-08-20T05:54:54;21.40;97.20
17968;DHT22;9109;48.050;11.696;2023-08-20T05:57:56;21.40;97.80
17968;DHT22;9109;48.050;11.696;2023-08-20T06:00:58;21.40;98.40
17968;DHT22;9109;48.050;11.696;2023-08-20T06:04:00;21.50;99.10
17968;DHT22;9109;48.050;11.696;2023-08-20T06:07:04;21.50;99.00
17968;DHT22;9109;48.050;11.696;2023-08-20T06:10:07;21.60;99.10
17968;DHT22;9109;48.050;11.696;2023-08-20T06:13:09;21.70;98.50
17968;DHT22;9109;48.050;11.696;2023-08-20T06:16:11;21.80;97.80
17968;DHT22;9109;48.050;11.696;2023-08-20T06:19:13;21.90;96.90
17968;DHT22;9109;48.050;11.696;2023-08-20T06:22:16;21.90;96.20
17968;DHT22;9109;48.050;11.696;2023-08-20T06:25:19;22.00;95.80
17968;DHT22;9109;48.050;11.696;2023-08-20T06:28:21;22.20;95.90
17968;DHT22;9109;48.050;11.696;2023-08-20T06:31:23;22.30;95.80
17968;DHT22;9109;48.050;11.696;2023-08-20T06:34:25;22.40;95.90
17968;DHT22;9109;48.050;11.696;2023-08-20T06:37:28;22.40;96.00
17968;DHT22;9109;48.050;11.696;2023-08-20T06:40:30;22.50;96.10
17968;DHT22;9109;48.050;11.696;2023-08-20T06:43:32;22.60;96.00
17968;DHT22;9109;48.050;11.696;2023-08-20T06:46:34;22.70;95.10
17968;DHT22;9109;48.050;11.696;2023-08-20T06:49:36;22.80;93.60
17968;DHT22;9109;48.050;11.696;2023-08-20T06:52:39;22.90;93.80
17968;DHT22;9109;48.050;11.696;2023-08-20T06:55:42;23.00;93.80
17968;DHT22;9109;48.050;11.696;2023-08-20T06:58:44;23.10;93.30
17968;DHT22;9109;48.050;11.696;2023-08-20T07:01:46;23.20;92.70
17968;DHT22;9109;48.050;11.696;2023-08-20T07:04:48;23.30;91.10
17968;DHT22;9109;48.050;11.696;2023-08-20T07:07:51;23.40;91.60
17968;DHT22;9109;48.050;11.696;2023-08-20T07:10:53;23.40;91.20
17968;DHT22;9109;48.050;11.696;2023-08-20T07:13:55;23.50;91.50
17968;DHT22;9109;48.050;11.696;2023-08-20T07:16:57;23.60;91.50
17968;DHT22;9109;48.050;11.696;2023-08-20T07:20:00;23.70;90.90
17968;DHT22;9109;48.050;11.696;2023-08-20T07:23:05;23.80;90.20
17968;DHT22;9109;48.050;11.696;2023-08-20T07:26:08;23.90;90.50
17968;DHT22;9109;48.050;11.696;2023-08-20T07:29:11;24.10;89.40
17968;DHT22;9109;48.050;11.696;2023-08-20T07:32:13;24.30;87.50
17968;DHT22;9109;48.050;11.696;2023-08-20T07:35:15;24.50;86.40
17968;DHT22;9109;48.050;11.696;2023-08-20T07:38:18;24.60;85.60
17968;DHT22;9109;48.050;11.696;2023-08-20T07:41:21;24.70;84.50
17968;DHT22;9109;48.050;11.696;2023-08-20T07:44:23;24.70;82.70
17968;DHT22;9109;48.050;11.696;2023-08-20T07:47:25;25.00;80.60
17968;DHT22;9109;48.050;11.696;2023-08-20T07:50:29;25.10;78.30
17968;DHT22;9109;48.050;11.696;2023-08-20T07:53:33;25.40;77.10
17968;DHT22;9109;48.050;11.696;2023-08-20T07:56:35;25.50;77.90
17968;DHT22;9109;48.050;11.696;2023-08-20T07:59:37;25.60;77.80
17968;DHT22;9109;48.050;11.696;2023-08-20T08:02:39;25.70;77.90
17968;DHT22;9109;48.050;11.696;2023-08-20T08:05:42;25.70;76.00
17968;DHT22;9109;48.050;11.696;2023-08-20T08:08:49;25.90;80.60
17968;DHT22;9109;48.050;11.696;2023-08-20T08:11:51;25.90;79.30
17968;DHT22;9109;48.050;11.696;2023-08-20T08:14:53;26.10;75.50
17968;DHT22;9109;48.050;11.696;2023-08-20T08:17:55;26.30;74.00
17968;DHT22;9109;48.050;11.696;2023-08-20T08:20:57;26.30;75.50
17968;DHT22;9109;48.050;11.696;2023-08-20T08:24:00;26.30;78.60
17968;DHT22;9109;48.050;11.696;2023-08-20T08:27:03;26.50;75.30
17968;DHT22;9109;48.050;11.696;2023-08-20T08:30:06;26.70;77.10
17968;DHT22;9109;48.050;11.696;2023-08-20T08:33:11;26.90;71.00
17968;DHT22;9109;48.050;11.696;2023-08-20T08:36:13;27.10;71.50
17968;DHT22;9109;48.050;11.696;2023-08-20T08:39:18;27.20;70.10
17968;DHT22;9109;48.050;11.696;2023-08-20T08:42:22;27.30;68.60
17968;DHT22;9109;48.050;11.696;2023-08-20T08:45:26;27.50;66.10
17968;DHT22;9109;48.050;11.696;2023-08-20T08:48:28;27.60;66.00
17968;DHT22;9109;48.050;11.696;2023-08-20T08:51:31;27.70;63.90
17968;DHT22;9109;48.050;11.696;2023-08-20T08:54:35;27.70;66.00
17968;DHT22;9109;48.050;11.696;2023-08-20T08:57:37;27.70;64.60
17968;DHT22;9109;48.050;11.696;2023-08-20T09:00:39;27.70;65.50
17968;DHT22;9109;48.050;11.696;2023-08-20T09:03:41;27.80;67.20
17968;DHT22;9109;48.050;11.696;2023-08-20T09:06:47;28.00;64.40
17968;DHT22;9109;48.050;11.696;2023-08-20T09:09:56;28.10;66.30
17968;DHT22;9109;48.050;11.696;2023-08-20T09:12:59;28.20;65.40
17968;DHT22;9109;48.050;11.696;2023-08-20T09:16:03;28.30;63.30
17968;DHT22;9109;48.050;11.696;2023-08-20T09:19:06;28.50;62.50
17968;DHT22;9109;48.050;11.696;2023-08-20T09:22:08;28.40;60.70
17968;DHT22;9109;48.050;11.696;2023-08-20T09:25:15;28.50;60.40
17968;DHT22;9109;48.050;11.696;2023-08-20T09:28:17;28.60;60.70
17968;DHT22;9109;48.050;11.696;2023-08-20T09:31:19;28.90;60.30
17968;DHT22;9109;48.050;11.696;2023-08-20T09:34:21;28.90;59.60
17968;DHT22;9109;48.050;11.696;2023-08-20T09:37:24;29.00;60.30
17968;DHT22;9109;48.050;11.696;2023-08-20T09:40:28;29.10;58.60
17968;DHT22;9109;48.050;11.696;2023-08-20T09:43:31;29.20;58.50
17968;DHT22;9109;48.050;11.696;2023-08-20T09:46:35;29.30;60.90
17968;DHT22;9109;48.050;11.696;2023-08-20T09:49:38;29.30;58.40
17968;DHT22;9109;48.050;11.696;2023-08-20T09:52:44;29.30;56.40
17968;DHT22;9109;48.050;11.696;2023-08-20T09:55:50;29.30;57.10
17968;DHT22;9109;48.050;11.696;2023-08-20T09:58:54;29.30;57.20
17968;DHT22;9109;48.050;11.696;2023-08-20T10:01:58;29.40;57.70
17968;DHT22;9109;48.050;11.696;2023-08-20T10:05:06;29.50;58.30
17968;DHT22;9109;48.050;11.696;2023-08-20T10:08:09;29.50;58.50
17968;DHT22;9109;48.050;11.696;2023-08-20T10:11:15;29.50;56.70
17968;DHT22;9109;48.050;11.696;2023-08-20T10:14:18;29.50;57.60
17968;DHT22;9109;48.050;11.696;2023-08-20T10:17:28;29.60;56.10
17968;DHT22;9109;48.050;11.696;2023-08-20T10:20:32;29.70;55.70
17968;DHT22;9109;48.050;11.696;2023-08-20T10:23:40;29.70;54.00
17968;DHT22;9109;48.050;11.696;2023-08-20T10:26:47;29.70;54.00
17968;DHT22;9109;48.050;11.696;2023-08-20T10:29:50;29.70;55.10
17968;DHT22;9109;48.050;11.696;2023-08-20T10:33:00;29.80;56.30
17968;DHT22;9109;48.050;11.696;2023-08-20T10:36:08;29.90;54.10
17968;DHT22;9109;48.050;11.696;2023-08-20T10:39:20;30.00;54.70
17968;DHT22;9109;48.050;11.696;2023-08-20T10:42:27;30.10;55.30
17968;DHT22;9109;48.050;11.696;2023-08-20T10:45:29;30.10;53.20
17968;DHT22;9109;48.050;11.696;2023-08-20T10:48:33;30.10;52.60
17968;DHT22;9109;48.050;11.696;2023-08-20T10:51:37;30.10;54.70
17968;DHT22;9109;48.050;11.696;2023-08-20T10:54:41;30.30;52.20
17968;DHT22;9109;48.050;11.696;2023-08-20T10:57:44;30.30;52.00
17968;DHT22;9109;48.050;11.696;2023-08-20T11:01:12;30.30;53.30
17968;DHT22;9109;48.050;11.696;2023-08-20T11:04:17;30.40;53.90
17968;DHT22;9109;48.050;11.696;2023-08-20T11:07:23;30.40;53.10
17968;DHT22;9109;48.050;11.696;2023-08-20T11:10:31;30.50;55.50
17968;DHT22;9109;48.050;11.696;2023-08-20T11:13:51;30.60;52.90
17968;DHT22;9109;48.050;11.696;2023-08-20T11:16:53;30.60;53.70
17968;DHT22;9109;48.050;11.696;2023-08-20T11:19:56;30.50;53.70
17968;DHT22;9109;48.050;11.696;2023-08-20T11:23:00;30.50;53.60
17968;DHT22;9109;48.050;11.696;2023-08-20T11:26:07;30.70;54.40
17968;DHT22;9109;48.050;11.696;2023-08-20T11:29:32;30.80;54.80
17968;DHT22;9109;48.050;11.696;2023-08-20T11:32:44;30.90;53.80
17968;DHT22;9109;48.050;11.696;2023-08-20T11:35:57;30.90;52.30
17968;DHT22;9109;48.050;11.696;2023-08-20T11:39:02;31.00;52.90
17968;DHT22;9109;48.050;11.696;2023-08-20T11:42:09;31.20;50.40
17968;DHT22;9109;48.050;11.696;2023-08-20T11:45:18;31.20;52.70
17968;DHT22;9109;48.050;11.696;2023-08-20T11:48:22;31.20;53.60
17968;DHT22;9109;48.050;11.696;2023-08-20T11:51:27;31.30;54.30
17968;DHT22;9109;48.050;11.696;2023-08-20T11:54:34;31.50;54.70
17968;DHT22;9109;48.050;11.696;2023-08-20T11:57:40;31.70;53.60
17968;DHT22;9109;48.050;11.696;2023-08-20T12:00:50;31.70;54.00
17968;DHT22;9109;48.050;11.696;2023-08-20T12:03:52;31.70;53.80
17968;DHT22;9109;48.050;11.696;2023-08-20T12:07:07;31.70;53.80
17968;DHT22;9109;48.050;11.696;2023-08-20T12:10:25;31.80;51.50
17968;DHT22;9109;48.050;11.696;2023-08-20T12:13:30;31.90;50.10
17968;DHT22;9109;48.050;11.696;2023-08-20T12:16:41;31.80;50.70
17968;DHT22;9109;48.050;11.696;2023-08-20T12:19:43;31.90;51.20
17968;DHT22;9109;48.050;11.696;2023-08-20T12:22:50;32.00;50.20
17968;DHT22;9109;48.050;11.696;2023-08-20T12:25:54;32.00;50.10
17968;DHT22;9109;48.050;11.696;2023-08-20T12:28:56;32.10;52.30
17968;DHT22;9109;48.050;11.696;2023-08-20T12:32:03;32.20;52.50
17968;DHT22;9109;48.050;11.696;2023-08-20T12:35:08;32.20;50.60
17968;DHT22;9109;48.050;11.696;2023-08-20T12:38:14;32.40;50.90
17968;DHT22;9109;48.050;11.696;2023-08-20T12:41:17;32.40;48.90
17968;DHT22;9109;48.050;11.696;2023-08-20T12:44:20;32.40;47.90
17968;DHT22;9109;48.050;11.696;2023-08-20T12:47:23;32.30;48.40
17968;DHT22;9109;48.050;11.696;2023-08-20T12:50:25;32.40;51.00
17968;DHT22;9109;48.050;11.696;2023-08-20T12:53:27;32.50;48.80
17968;DHT22;9109;48.050;11.696;2023-08-20T12:56:30;32.70;51.00
17968;DHT22;9109;48.050;11.696;2023-08-20T12:59:32;32.70;48.70
17968;DHT22;9109;48.050;11.696;2023-08-20T13:02:36;32.70;48.80
17968;DHT22;9109;48.050;11.696;2023-08-20T13:05:39;32.70;47.20
17968;DHT22;9109;48.050;11.696;2023-08-20T13:08:41;32.70;45.80
17968;DHT22;9109;48.050;11.696;2023-08-20T13:11:47;32.60;49.50
17968;DHT22;9109;48.050;11.696;2023-08-20T13:14:50;32.70;49.70
17968;DHT22;9109;48.050;11.696;2023-08-20T13:17:54;32.60;49.90
17968;DHT22;9109;48.050;11.696;2023-08-20T13:20:56;32.80;52.20
17968;DHT22;9109;48.050;11.696;2023-08-20T13:23:58;32.80;50.80
17968;DHT22;9109;48.050;11.696;2023-08-20T13:27:00;32.80;47.50
17968;DHT22;9109;48.050;11.696;2023-08-20T13:30:03;32.80;49.60
17968;DHT22;9109;48.050;11.696;2023-08-20T13:33:06;32.90;50.50
17968;DHT22;9109;48.050;11.696;2023-08-20T13:36:09;33.10;49.10
17968;DHT22;9109;48.050;11.696;2023-08-20T13:39:11;33.10;49.50
17968;DHT22;9109;48.050;11.696;2023-08-20T13:42:14;33.10;50.40
17968;DHT22;9109;48.050;11.696;2023-08-20T13:45:16;33.20;50.80
17968;DHT22;9109;48.050;11.696;2023-08-20T13:48:20;33.10;48.70
17968;DHT22;9109;48.050;11.696;2023-08-20T13:51:22;33.10;50.50
17968;DHT22;9109;48.050;11.696;2023-08-20T13:54:24;33.00;49.30
17968;DHT22;9109;48.050;11.696;2023-08-20T13:57:26;33.00;49.90
17968;DHT22;9109;48.050;11.696;2023-08-20T14:00:30;33.00;49.70
17968;DHT22;9109;48.050;11.696;2023-08-20T14:03:33;32.80;50.90
17968;DHT22;9109;48.050;11.696;2023-08-20T14:06:36;32.70;49.50
17968;DHT22;9109;48.050;11.696;2023-08-20T14:09:38;32.70;48.40
17968;DHT22;9109;48.050;11.696;2023-08-20T14:12:41;32.70;49.10
17968;DHT22;9109;48.050;11.696;2023-08-20T14:15:43;32.60;48.90
17968;DHT22;9109;48.050;11.696;2023-08-20T14:18:46;32.70;51.30
17968;DHT22;9109;48.050;11.696;2023-08-20T14:21:48;32.70;50.70
17968;DHT22;9109;48.050;11.696;2023-08-20T14:24:50;32.70;50.40
17968;DHT22;9109;48.050;11.696;2023-08-20T14:27:52;32.70;49.00
17968;DHT22;9109;48.050;11.696;2023-08-20T14:30:55;32.60;48.00
17968;DHT22;9109;48.050;11.696;2023-08-20T14:33:58;32.60;50.20
17968;DHT22;9109;48.050;11.696;2023-08-20T14:37:00;32.70;49.40
17968;DHT22;9109;48.050;11.696;2023-08-20T14:40:03;32.70;48.10
17968;DHT22;9109;48.050;11.696;2023-08-20T14:43:06;32.60;48.00
17968;DHT22;9109;48.050;11.696;2023-08-20T14:46:08;32.70;48.10
17968;DHT22;9109;48.050;11.696;2023-08-20T14:49:12;32.70;49.20
17968;DHT22;9109;48.050;11.696;2023-08-20T14:52:14;32.60;49.10
17968;DHT22;9109;48.050;11.696;2023-08-20T14:55:17;32.50;50.00
17968;DHT22;9109;48.050;11.696;2023-08-20T14:58:19;32.50;48.70
17968;DHT22;9109;48.050;11.696;2023-08-20T15:01:21;32.50;50.20
17968;DHT22;9109;48.050;11.696;2023-08-20T15:04:24;32.50;48.00
17968;DHT22;9109;48.050;11.696;2023-08-20T15:07:26;32.50;47.40
17968;DHT22;9109;48.050;11.696;2023-08-20T15:10:28;32.40;47.40
17968;DHT22;9109;48.050;11.696;2023-08-20T15:13:31;32.40;48.30
17968;DHT22;9109;48.050;11.696;2023-08-20T15:16:33;32.30;48.00
17968;DHT22;9109;48.050;11.696;2023-08-20T15:19:43;32.40;47.80
17968;DHT22;9109;48.050;11.696;2023-08-20T15:22:49;32.40;48.70
17968;DHT22;9109;48.050;11.696;2023-08-20T15:25:51;32.30;49.80
17968;DHT22;9109;48.050;11.696;2023-08-20T15:28:54;32.20;48.70
17968;DHT22;9109;48.050;11.696;2023-08-20T15:31:57;32.20;47.70
17968;DHT22;9109;48.050;11.696;2023-08-20T15:35:00;32.00;49.00
17968;DHT22;9109;48.050;11.696;2023-08-20T15:38:06;32.00;47.90
17968;DHT22;9109;48.050;11.696;2023-08-20T15:41:12;31.90;50.00
17968;DHT22;9109;48.050;11.696;2023-08-20T15:44:15;31.90;49.70
17968;DHT22;9109;48.050;11.696;2023-08-20T15:47:17;31.90;50.60
17968;DHT22;9109;48.050;11.696;2023-08-20T15:50:20;31.90;50.00
17968;DHT22;9109;48.050;11.696;2023-08-20T15:53:22;31.90;50.20
17968;DHT22;9109;48.050;11.696;2023-08-20T15:56:25;31.80;49.40
17968;DHT22;9109;48.050;11.696;2023-08-20T15:59:28;31.80;50.20
17968;DHT22;9109;48.050;11.696;2023-08-20T16:02:30;31.70;50.90
17968;DHT22;9109;48.050;11.696;2023-08-20T16:05:33;31.70;50.50
17968;DHT22;9109;48.050;11.696;2023-08-20T16:08:35;31.60;49.90
17968;DHT22;9109;48.050;11.696;2023-08-20T16:11:37;31.60;50.10
17968;DHT22;9109;48.050;11.696;2023-08-20T16:14:39;31.50;50.70
17968;DHT22;9109;48.050;11.696;2023-08-20T16:17:41;31.40;51.80
17968;DHT22;9109;48.050;11.696;2023-08-20T16:20:44;31.50;50.90
17968;DHT22;9109;48.050;11.696;2023-08-20T16:23:46;31.40;51.30
17968;DHT22;9109;48.050;11.696;2023-08-20T16:26:48;31.40;51.00
17968;DHT22;9109;48.050;11.696;2023-08-20T16:29:50;31.30;51.70
17968;DHT22;9109;48.050;11.696;2023-08-20T16:32:52;31.30;51.70
17968;DHT22;9109;48.050;11.696;2023-08-20T16:35:56;31.20;52.40
17968;DHT22;9109;48.050;11.696;2023-08-20T16:38:58;31.10;52.80
17968;DHT22;9109;48.050;11.696;2023-08-20T16:42:00;31.00;53.10
17968;DHT22;9109;48.050;11.696;2023-08-20T16:45:02;31.00;53.40
17968;DHT22;9109;48.050;11.696;2023-08-20T16:48:05;30.90;54.10
17968;DHT22;9109;48.050;11.696;2023-08-20T16:51:08;30.80;53.80
17968;DHT22;9109;48.050;11.696;2023-08-20T16:54:10;30.70;54.50
17968;DHT22;9109;48.050;11.696;2023-08-20T16:57:12;30.60;53.40
17968;DHT22;9109;48.050;11.696;2023-08-20T17:00:15;30.50;53.00
17968;DHT22;9109;48.050;11.696;2023-08-20T17:03:17;30.50;53.30
17968;DHT22;9109;48.050;11.696;2023-08-20T17:06:21;30.40;53.50
17968;DHT22;9109;48.050;11.696;2023-08-20T17:09:23;30.40;53.70
17968;DHT22;9109;48.050;11.696;2023-08-20T17:12:25;30.40;53.60
17968;DHT22;9109;48.050;11.696;2023-08-20T17:15:27;30.30;53.60
17968;DHT22;9109;48.050;11.696;2023-08-20T17:18:29;30.20;54.50
17968;DHT22;9109;48.050;11.696;2023-08-20T17:21:32;30.20;54.00
17968;DHT22;9109;48.050;11.696;2023-08-20T17:24:34;30.10;54.60
17968;DHT22;9109;48.050;11.696;2023-08-20T17:27:37;30.10;54.80
17968;DHT22;9109;48.050;11.696;2023-08-20T17:30:39;30.00;55.10
17968;DHT22;9109;48.050;11.696;2023-08-20T17:33:42;30.00;55.60
17968;DHT22;9109;48.050;11.696;2023-08-20T17:36:45;29.90;55.40
17968;DHT22;9109;48.050;11.696;2023-08-20T17:39:48;29.80;55.90
17968;DHT22;9109;48.050;11.696;2023-08-20T17:42:50;29.70;56.10
17968;DHT22;9109;48.050;11.696;2023-08-20T17:45:52;29.60;56.40
17968;DHT22;9109;48.050;11.696;2023-08-20T17:48:54;29.60;56.80
17968;DHT22;9109;48.050;11.696;2023-08-20T17:51:57;29.50;57.10
17968;DHT22;9109;48.050;11.696;2023-08-20T17:54:59;29.40;57.20
17968;DHT22;9109;48.050;11.696;2023-08-20T17:58:03;29.30;57.70
17968;DHT22;9109;48.050;11.696;2023-08-20T18:01:12;29.20;57.90
17968;DHT22;9109;48.050;11.696;2023-08-20T18:04:14;29.10;58.50
17968;DHT22;9109;48.050;11.696;2023-08-20T18:07:17;29.00;58.90
17968;DHT22;9109;48.050;11.696;2023-08-20T18:10:20;28.90;59.80
17968;DHT22;9109;48.050;11.696;2023-08-20T18:13:23;28.70;60.10
17968;DHT22;9109;48.050;11.696;2023-08-20T18:16:25;28.50;60.80
17968;DHT22;9109;48.050;11.696;2023-08-20T18:19:27;28.40;61.70
17968;DHT22;9109;48.050;11.696;2023-08-20T18:22:31;28.30;62.10
17968;DHT22;9109;48.050;11.696;2023-08-20T18:25:33;28.20;63.50
17968;DHT22;9109;48.050;11.696;2023-08-20T18:28:35;28.10;63.30
17968;DHT22;9109;48.050;11.696;2023-08-20T18:31:37;28.00;64.20
17968;DHT22;9109;48.050;11.696;2023-08-20T18:34:39;27.90;64.70
17968;DHT22;9109;48.050;11.696;2023-08-20T18:37:42;27.90;64.70
17968;DHT22;9109;48.050;11.696;2023-08-20T18:40:44;27.90;65.60
17968;DHT22;9109;48.050;11.696;2023-08-20T18:43:46;27.90;66.10
17968;DHT22;9109;48.050;11.696;2023-08-20T18:46:49;27.90;66.50
17968;DHT22;9109;48.050;11.696;2023-08-20T18:49:51;27.90;67.20
17968;DHT22;9109;48.050;11.696;2023-08-20T18:52:54;27.90;68.00
17968;DHT22;9109;48.050;11.696;2023-08-20T18:55:56;27.90;68.30
17968;DHT22;9109;48.050;11.696;2023-08-20T18:58:59;27.90;68.80
17968;DHT22;9109;48.050;11.696;2023-08-20T19:02:01;27.80;70.30
17968;DHT22;9109;48.050;11.696;2023-08-20T19:05:04;27.80;70.40
17968;DHT22;9109;48.050;11.696;2023-08-20T19:08:08;27.70;70.70
17968;DHT22;9109;48.050;11.696;2023-08-20T19:11:12;27.70;71.20
17968;DHT22;9109;48.050;11.696;2023-08-20T19:14:14;27.50;71.70
17968;DHT22;9109;48.050;11.696;2023-08-20T19:17:16;27.40;72.00
17968;DHT22;9109;48.050;11.696;2023-08-20T19:20:18;27.30;72.30
17968;DHT22;9109;48.050;11.696;2023-08-20T19:23:23;27.30;72.40
17968;DHT22;9109;48.050;11.696;2023-08-20T19:26:25;27.20;72.70
17968;DHT22;9109;48.050;11.696;2023-08-20T19:29:28;27.20;73.10
17968;DHT22;9109;48.050;11.696;2023-08-20T19:32:33;27.10;73.50
17968;DHT22;9109;48.050;11.696;2023-08-20T19:35:37;27.10;74.00
17968;DHT22;9109;48.050;11.696;2023-08-20T19:38:40;27.10;74.30
17968;DHT22;9109;48.050;11.696;2023-08-20T19:41:42;27.00;75.10
17968;DHT22;9109;48.050;11.696;2023-08-20T19:44:45;26.80;75.80
17968;DHT22;9109;48.050;11.696;2023-08-20T19:47:47;26.60;76.60
17968;DHT22;9109;48.050;11.696;2023-08-20T19:50:49;26.60;77.10
17968;DHT22;9109;48.050;11.696;2023-08-20T19:53:53;26.50;77.40
17968;DHT22;9109;48.050;11.696;2023-08-20T19:56:55;26.50;77.60
17968;DHT22;9109;48.050;11.696;2023-08-20T19:59:57;26.50;77.80
17968;DHT22;9109;48.050;11.696;2023-08-20T20:02:59;26.40;78.10
17968;DHT22;9109;48.050;11.696;2023-08-20T20:06:01;26.20;78.40
17968;DHT22;9109;48.050;11.696;2023-08-20T20:09:06;26.20;79.20
17968;DHT22;9109;48.050;11.696;2023-08-20T20:12:09;26.20;79.30
17968;DHT22;9109;48.050;11.696;2023-08-20T20:15:11;26.20;79.20
17968;DHT22;9109;48.050;11.696;2023-08-20T20:18:13;26.20;79.20
17968;DHT22;9109;48.050;11.696;2023-08-20T20:21:15;26.20;78.90
17968;DHT22;9109;48.050;11.696;2023-08-20T20:24:19;26.20;78.70
17968;DHT22;9109;48.050;11.696;2023-08-20T20:27:21;26.20;79.70
17968;DHT22;9109;48.050;11.696;2023-08-20T20:30:23;26.20;80.20
17968;DHT22;9109;48.050;11.696;2023-08-20T20:33:26;26.10;79.90
17968;DHT22;9109;48.050;11.696;2023-08-20T20:36:28;25.90;80.50
17968;DHT22;9109;48.050;11.696;2023-08-20T20:39:32;25.90;81.40
17968;DHT22;9109;48.050;11.696;2023-08-20T20:42:34;25.80;81.70
17968;DHT22;9109;48.050;11.696;2023-08-20T20:45:42;25.80;82.00
17968;DHT22;9109;48.050;11.696;2023-08-20T20:48:44;25.70;81.80
17968;DHT22;9109;48.050;11.696;2023-08-20T20:52:05;25.70;82.60
17968;DHT22;9109;48.050;11.696;2023-08-20T20:55:22;25.60;82.90
17968;DHT22;9109;48.050;11.696;2023-08-20T20:58:28;25.50;83.00
17968;DHT22;9109;48.050;11.696;2023-08-20T21:01:34;25.40;83.30
17968;DHT22;9109;48.050;11.696;2023-08-20T21:04:37;25.30;84.00
17968;DHT22;9109;48.050;11.696;2023-08-20T21:07:40;25.30;84.30
17968;DHT22;9109;48.050;11.696;2023-08-20T21:10:45;25.20;84.20
17968;DHT22;9109;48.050;11.696;2023-08-20T21:13:47;25.20;83.80
17968;DHT22;9109;48.050;11.696;2023-08-20T21:16:49;25.20;84.70
17968;DHT22;9109;48.050;11.696;2023-08-20T21:19:51;25.20;84.50
17968;DHT22;9109;48.050;11.696;2023-08-20T21:22:53;25.20;84.50
17968;DHT22;9109;48.050;11.696;2023-08-20T21:25:57;25.20;84.50
17968;DHT22;9109;48.050;11.696;2023-08-20T21:29:03;25.20;84.70
17968;DHT22;9109;48.050;11.696;2023-08-20T21:32:06;25.10;85.00
17968;DHT22;9109;48.050;11.696;2023-08-20T21:35:08;25.00;85.50
17968;DHT22;9109;48.050;11.696;2023-08-20T21:38:10;24.80;86.30
17968;DHT22;9109;48.050;11.696;2023-08-20T21:41:14;24.80;86.60
17968;DHT22;9109;48.050;11.696;2023-08-20T21:44:16;24.70;86.70
17968;DHT22;9109;48.050;11.696;2023-08-20T21:47:22;24.70;87.00
17968;DHT22;9109;48.050;11.696;2023-08-20T21:50:24;24.70;87.00
17968;DHT22;9109;48.050;11.696;2023-08-20T21:53:28;24.70;87.10
17968;DHT22;9109;48.050;11.696;2023-08-20T21:56:32;24.70;87.10
17968;DHT22;9109;48.050;11.696;2023-08-20T21:59:34;24.40;86.70
17968;DHT22;9109;48.050;11.696;2023-08-20T22:02:36;24.40;88.20
17968;DHT22;9109;48.050;11.696;2023-08-20T22:05:38;24.40;88.20
17968;DHT22;9109;48.050;11.696;2023-08-20T22:08:40;24.50;88.60
17968;DHT22;9109;48.050;11.696;2023-08-20T22:11:44;24.40;88.80
17968;DHT22;9109;48.050;11.696;2023-08-20T22:14:46;24.40;89.00
